Wijchen, Netherlands
Current Conditions -  °F | °C
As of 10:25 AM on Sunday 26 Oct 2014 (Local Time) from EHVK Reporting Station
Overcast Overcast  
Wind Chill: 12°   Ceiling: 4300
Heat Index: 12°   Visibility: 6mi
Dew Point: 11°   Wind: 7mph
Humidity: 94%   Direction: 200°SSW
Pressure: 30.24"   Gusts: NA
Location:  51.81°N, 5.73°E
Report Text: EHVK 260825Z AUTO 20006KT 9999 OVC043 12/11 Q1024 BLU
Loading
Personal Weather Stations






























Interactive Weather Map
Tropical Storm Tracking
New forecast layout! Learn more

10-Day Weather Forecast

Advertisements
Track Severe Weather on mobile